sensor_id;sensor_type;location;lat;lon;timestamp;P1;durP1;ratioP1;P2;durP2;ratioP2
59314;SDS011;46521;50.160;20.802;2023-07-29T00:14:36;7.07;;;3.97;;
59314;SDS011;46521;50.160;20.802;2023-07-29T00:24:39;7.67;;;3.93;;
59314;SDS011;46521;50.160;20.802;2023-07-29T00:34:40;7.53;;;4.05;;
59314;SDS011;46521;50.160;20.802;2023-07-29T00:44:42;7.50;;;3.53;;
59314;SDS011;46521;50.160;20.802;2023-07-29T00:54:43;8.00;;;3.80;;
59314;SDS011;46521;50.160;20.802;2023-07-29T01:04:45;8.10;;;4.37;;
59314;SDS011;46521;50.160;20.802;2023-07-29T01:14:47;9.75;;;4.40;;
59314;SDS011;46521;50.160;20.802;2023-07-29T01:25:00;8.40;;;4.50;;
59314;SDS011;46521;50.160;20.802;2023-07-29T01:35:10;9.30;;;4.60;;
59314;SDS011;46521;50.160;20.802;2023-07-29T01:45:18;8.33;;;4.37;;
59314;SDS011;46521;50.160;20.802;2023-07-29T01:55:20;9.90;;;4.37;;
59314;SDS011;46521;50.160;20.802;2023-07-29T02:05:22;9.07;;;4.53;;
59314;SDS011;46521;50.160;20.802;2023-07-29T02:15:23;8.95;;;4.60;;
59314;SDS011;46521;50.160;20.802;2023-07-29T02:25:25;8.00;;;4.40;;
59314;SDS011;46521;50.160;20.802;2023-07-29T02:35:26;8.40;;;5.10;;
59314;SDS011;46521;50.160;20.802;2023-07-29T02:45:28;8.23;;;4.30;;
59314;SDS011;46521;50.160;20.802;2023-07-29T02:55:30;10.80;;;4.60;;
59314;SDS011;46521;50.160;20.802;2023-07-29T03:05:31;7.87;;;4.33;;
59314;SDS011;46521;50.160;20.802;2023-07-29T03:15:33;8.05;;;4.25;;
59314;SDS011;46521;50.160;20.802;2023-07-29T03:25:35;7.70;;;4.00;;
59314;SDS011;46521;50.160;20.802;2023-07-29T03:35:37;9.30;;;4.40;;
59314;SDS011;46521;50.160;20.802;2023-07-29T03:45:40;8.30;;;3.70;;
59314;SDS011;46521;50.160;20.802;2023-07-29T03:55:42;7.20;;;3.67;;
59314;SDS011;46521;50.160;20.802;2023-07-29T04:05:44;8.13;;;4.13;;
59314;SDS011;46521;50.160;20.802;2023-07-29T04:15:46;7.87;;;4.20;;
59314;SDS011;46521;50.160;20.802;2023-07-29T04:25:47;8.70;;;4.30;;
59314;SDS011;46521;50.160;20.802;2023-07-29T04:35:50;9.47;;;4.40;;
59314;SDS011;46521;50.160;20.802;2023-07-29T04:45:52;7.73;;;3.63;;
59314;SDS011;46521;50.160;20.802;2023-07-29T04:55:53;8.00;;;3.90;;
59314;SDS011;46521;50.160;20.802;2023-07-29T05:05:55;7.40;;;3.80;;
59314;SDS011;46521;50.160;20.802;2023-07-29T05:15:58;8.80;;;3.87;;
59314;SDS011;46521;50.160;20.802;2023-07-29T05:25:59;8.07;;;5.43;;
59314;SDS011;46521;50.160;20.802;2023-07-29T05:36:00;8.20;;;4.40;;
59314;SDS011;46521;50.160;20.802;2023-07-29T06:27:00;8.80;;;5.00;;
59314;SDS011;46521;50.160;20.802;2023-07-29T06:37:02;8.30;;;4.60;;
59314;SDS011;46521;50.160;20.802;2023-07-29T06:47:04;7.50;;;3.60;;
59314;SDS011;46521;50.160;20.802;2023-07-29T06:57:05;7.70;;;4.20;;
59314;SDS011;46521;50.160;20.802;2023-07-29T07:07:07;9.10;;;4.05;;
59314;SDS011;46521;50.160;20.802;2023-07-29T07:17:09;7.70;;;4.10;;
59314;SDS011;46521;50.160;20.802;2023-07-29T07:27:10;8.40;;;4.40;;
59314;SDS011;46521;50.160;20.802;2023-07-29T07:37:11;7.30;;;3.57;;
59314;SDS011;46521;50.160;20.802;2023-07-29T07:47:13;8.33;;;4.10;;
59314;SDS011;46521;50.160;20.802;2023-07-29T07:57:14;6.53;;;3.30;;
59314;SDS011;46521;50.160;20.802;2023-07-29T08:07:16;7.37;;;2.80;;
59314;SDS011;46521;50.160;20.802;2023-07-29T08:17:17;6.40;;;3.05;;
59314;SDS011;46521;50.160;20.802;2023-07-29T08:27:19;6.58;;;2.90;;
59314;SDS011;46521;50.160;20.802;2023-07-29T08:37:20;6.10;;;2.60;;
59314;SDS011;46521;50.160;20.802;2023-07-29T08:47:22;6.15;;;2.90;;
59314;SDS011;46521;50.160;20.802;2023-07-29T08:57:23;6.37;;;2.90;;
59314;SDS011;46521;50.160;20.802;2023-07-29T09:07:27;6.27;;;2.60;;
59314;SDS011;46521;50.160;20.802;2023-07-29T09:17:33;5.70;;;2.30;;
59314;SDS011;46521;50.160;20.802;2023-07-29T09:27:34;5.45;;;2.20;;
59314;SDS011;46521;50.160;20.802;2023-07-29T09:37:39;4.07;;;2.00;;
59314;SDS011;46521;50.160;20.802;2023-07-29T09:47:41;4.60;;;2.40;;
59314;SDS011;46521;50.160;20.802;2023-07-29T09:57:47;7.47;;;2.33;;
59314;SDS011;46521;50.160;20.802;2023-07-29T10:07:48;5.25;;;2.15;;
59314;SDS011;46521;50.160;20.802;2023-07-29T10:17:50;4.60;;;1.60;;
59314;SDS011;46521;50.160;20.802;2023-07-29T10:27:57;5.10;;;2.20;;
59314;SDS011;46521;50.160;20.802;2023-07-29T10:38:08;3.73;;;1.73;;
59314;SDS011;46521;50.160;20.802;2023-07-29T10:48:11;6.95;;;2.25;;
59314;SDS011;46521;50.160;20.802;2023-07-29T10:58:16;3.90;;;1.90;;
59314;SDS011;46521;50.160;20.802;2023-07-29T11:08:36;4.80;;;2.05;;
59314;SDS011;46521;50.160;20.802;2023-07-29T11:18:38;4.23;;;2.10;;
59314;SDS011;46521;50.160;20.802;2023-07-29T11:28:43;6.55;;;2.43;;
59314;SDS011;46521;50.160;20.802;2023-07-29T11:38:47;3.70;;;1.85;;
59314;SDS011;46521;50.160;20.802;2023-07-29T11:48:48;5.05;;;2.25;;
59314;SDS011;46521;50.160;20.802;2023-07-29T11:58:50;6.00;;;2.20;;
59314;SDS011;46521;50.160;20.802;2023-07-29T12:08:55;5.50;;;2.60;;
59314;SDS011;46521;50.160;20.802;2023-07-29T12:18:59;6.40;;;2.20;;
59314;SDS011;46521;50.160;20.802;2023-07-29T12:29:11;4.53;;;2.33;;
59314;SDS011;46521;50.160;20.802;2023-07-29T12:39:18;5.60;;;2.30;;
59314;SDS011;46521;50.160;20.802;2023-07-29T12:49:24;5.73;;;2.63;;
59314;SDS011;46521;50.160;20.802;2023-07-29T12:59:25;7.67;;;2.23;;
59314;SDS011;46521;50.160;20.802;2023-07-29T13:09:27;5.40;;;1.70;;
59314;SDS011;46521;50.160;20.802;2023-07-29T13:19:28;12.27;;;3.43;;
59314;SDS011;46521;50.160;20.802;2023-07-29T13:29:30;4.90;;;1.80;;
59314;SDS011;46521;50.160;20.802;2023-07-29T13:39:31;3.90;;;1.70;;
59314;SDS011;46521;50.160;20.802;2023-07-29T13:49:33;5.13;;;2.25;;
59314;SDS011;46521;50.160;20.802;2023-07-29T13:59:34;5.13;;;1.80;;
59314;SDS011;46521;50.160;20.802;2023-07-29T14:09:36;4.70;;;1.77;;
59314;SDS011;46521;50.160;20.802;2023-07-29T14:19:39;4.35;;;1.55;;
59314;SDS011;46521;50.160;20.802;2023-07-29T14:29:40;4.65;;;1.35;;
59314;SDS011;46521;50.160;20.802;2023-07-29T14:39:42;2.65;;;1.35;;
59314;SDS011;46521;50.160;20.802;2023-07-29T14:49:44;4.93;;;1.90;;
59314;SDS011;46521;50.160;20.802;2023-07-29T14:59:45;4.07;;;1.53;;
59314;SDS011;46521;50.160;20.802;2023-07-29T15:09:47;4.17;;;1.50;;
59314;SDS011;46521;50.160;20.802;2023-07-29T15:19:49;5.90;;;1.90;;
59314;SDS011;46521;50.160;20.802;2023-07-29T15:29:51;4.90;;;2.05;;
59314;SDS011;46521;50.160;20.802;2023-07-29T15:39:52;6.93;;;2.40;;
59314;SDS011;46521;50.160;20.802;2023-07-29T15:49:54;4.25;;;1.80;;
59314;SDS011;46521;50.160;20.802;2023-07-29T15:59:55;5.50;;;2.20;;
59314;SDS011;46521;50.160;20.802;2023-07-29T16:09:57;5.28;;;2.08;;
59314;SDS011;46521;50.160;20.802;2023-07-29T16:19:59;5.55;;;2.00;;
59314;SDS011;46521;50.160;20.802;2023-07-29T16:30:02;5.60;;;2.30;;
59314;SDS011;46521;50.160;20.802;2023-07-29T16:40:05;5.77;;;2.60;;
59314;SDS011;46521;50.160;20.802;2023-07-29T16:50:07;5.00;;;2.15;;
59314;SDS011;46521;50.160;20.802;2023-07-29T17:00:09;5.70;;;2.30;;
59314;SDS011;46521;50.160;20.802;2023-07-29T17:10:11;5.43;;;2.63;;
59314;SDS011;46521;50.160;20.802;2023-07-29T17:20:12;4.90;;;2.20;;
59314;SDS011;46521;50.160;20.802;2023-07-29T17:30:15;5.40;;;2.25;;
59314;SDS011;46521;50.160;20.802;2023-07-29T17:40:16;4.10;;;1.90;;
59314;SDS011;46521;50.160;20.802;2023-07-29T17:50:18;6.03;;;2.45;;
59314;SDS011;46521;50.160;20.802;2023-07-29T18:00:20;5.50;;;2.50;;
59314;SDS011;46521;50.160;20.802;2023-07-29T18:10:22;4.80;;;2.15;;
59314;SDS011;46521;50.160;20.802;2023-07-29T18:20:24;6.50;;;2.80;;
59314;SDS011;46521;50.160;20.802;2023-07-29T18:30:26;6.90;;;2.85;;
59314;SDS011;46521;50.160;20.802;2023-07-29T18:40:27;7.43;;;2.73;;
59314;SDS011;46521;50.160;20.802;2023-07-29T18:50:29;7.95;;;3.38;;
59314;SDS011;46521;50.160;20.802;2023-07-29T19:00:31;7.85;;;3.40;;
59314;SDS011;46521;50.160;20.802;2023-07-29T19:10:34;7.27;;;3.40;;
59314;SDS011;46521;50.160;20.802;2023-07-29T19:20:35;7.70;;;3.58;;
59314;SDS011;46521;50.160;20.802;2023-07-29T19:30:37;6.80;;;3.55;;
59314;SDS011;46521;50.160;20.802;2023-07-29T19:40:38;8.85;;;4.10;;
59314;SDS011;46521;50.160;20.802;2023-07-29T19:50:40;8.10;;;3.90;;
59314;SDS011;46521;50.160;20.802;2023-07-29T20:00:41;7.60;;;3.70;;
59314;SDS011;46521;50.160;20.802;2023-07-29T20:10:43;7.13;;;3.78;;
59314;SDS011;46521;50.160;20.802;2023-07-29T20:20:47;8.45;;;4.05;;
59314;SDS011;46521;50.160;20.802;2023-07-29T20:30:58;9.43;;;4.70;;
59314;SDS011;46521;50.160;20.802;2023-07-29T20:41:00;8.30;;;4.63;;
59314;SDS011;46521;50.160;20.802;2023-07-29T20:51:01;9.07;;;4.93;;
59314;SDS011;46521;50.160;20.802;2023-07-29T21:01:03;10.70;;;5.20;;
59314;SDS011;46521;50.160;20.802;2023-07-29T21:11:04;10.70;;;5.45;;
59314;SDS011;46521;50.160;20.802;2023-07-29T21:21:06;9.00;;;5.15;;
59314;SDS011;46521;50.160;20.802;2023-07-29T21:31:07;8.80;;;5.30;;
59314;SDS011;46521;50.160;20.802;2023-07-29T21:41:08;9.60;;;5.40;;
59314;SDS011;46521;50.160;20.802;2023-07-29T21:51:10;8.60;;;5.33;;
59314;SDS011;46521;50.160;20.802;2023-07-29T22:01:11;8.40;;;5.50;;
59314;SDS011;46521;50.160;20.802;2023-07-29T22:11:13;7.90;;;4.50;;
59314;SDS011;46521;50.160;20.802;2023-07-29T22:21:14;8.60;;;4.65;;
59314;SDS011;46521;50.160;20.802;2023-07-29T22:31:16;8.18;;;4.55;;
59314;SDS011;46521;50.160;20.802;2023-07-29T22:41:18;9.40;;;5.00;;
59314;SDS011;46521;50.160;20.802;2023-07-29T22:51:19;8.40;;;4.30;;
59314;SDS011;46521;50.160;20.802;2023-07-29T23:01:21;7.45;;;3.90;;
59314;SDS011;46521;50.160;20.802;2023-07-29T23:11:22;8.20;;;4.20;;
59314;SDS011;46521;50.160;20.802;2023-07-29T23:21:24;7.65;;;3.80;;
59314;SDS011;46521;50.160;20.802;2023-07-29T23:31:25;7.50;;;4.00;;
59314;SDS011;46521;50.160;20.802;2023-07-29T23:41:27;7.40;;;3.90;;
